Time;durP1;ratioP1;P1;durP2;ratioP2;P2;SDS_P1;SDS_P2;PMS_P1;PMS_P2;Temp;Humidity;BMP_temperature;BMP_pressure;BME280_temperature;BME280_humidity;BME280_pressure;Samples;Min_cycle;Max_cycle;Signal;HPM_P1;HPM_P2
2021/05/20 00:00:30;;;;;;;17.90;11.85;;;;;;;11.02;73.15;101911.34;4971018;28;20463;-54
2021/05/20 00:03:07;;;;;;;16.48;12.23;;;;;;;11.02;72.70;101922.25;4955200;28;20059;-55
2021/05/20 00:05:54;;;;;;;16.75;12.68;;;;;;;11.00;73.10;101916.19;4958153;28;20069;-55
2021/05/20 00:08:42;;;;;;;16.30;12.52;;;;;;;10.99;73.19;101917.28;4953877;29;20606;-57
2021/05/20 00:11:30;;;;;;;15.60;12.55;;;;;;;10.99;72.69;101916.44;4955698;28;20053;-55
2021/05/20 00:14:17;;;;;;;16.77;13.20;;;;;;;10.99;72.77;101920.00;4955928;28;20047;-55
2021/05/20 00:16:48;;;;;;;17.70;12.90;;;;;;;10.98;73.09;101912.88;4954908;29;20055;-57
2021/05/20 00:19:25;;;;;;;16.58;12.48;;;;;;;11.01;72.94;101917.03;4954770;29;20784;-56
2021/05/20 00:21:56;;;;;;;17.48;13.00;;;;;;;11.01;72.91;101919.75;4935373;29;20150;-56
2021/05/20 00:24:32;;;;;;;17.33;13.40;;;;;;;10.99;72.94;101928.19;4954767;28;20159;-56
2021/05/20 00:27:20;;;;;;;17.45;13.35;;;;;;;10.95;72.73;101927.00;4955666;29;20102;-57
2021/05/20 00:29:55;;;;;;;19.30;14.25;;;;;;;10.92;72.80;101932.13;4954551;29;20058;-53
2021/05/20 00:32:26;;;;;;;18.65;14.35;;;;;;;10.87;72.88;101935.56;4956038;28;20059;-56
2021/05/20 00:35:02;;;;;;;;;;;;;;;10.85;73.11;101932.28;4955742;28;20035;-53
2021/05/20 00:37:30;;;;;;;18.92;14.60;;;;;;;10.83;73.29;101918.88;4955542;28;19929;-55
2021/05/20 00:39:58;;;;;;;16.75;13.00;;;;;;;10.82;72.96;101922.69;4955530;28;20050;-56
2021/05/20 00:42:26;;;;;;;16.73;12.77;;;;;;;10.80;73.31;101918.53;4970396;28;20062;-55
2021/05/20 00:44:58;;;;;;;17.80;13.80;;;;;;;10.79;73.31;101922.34;4955449;28;20098;-56
2021/05/20 00:47:30;;;;;;;18.88;14.15;;;;;;;10.79;73.79;101917.69;4955515;29;20063;-56
2021/05/20 00:50:04;;;;;;;17.55;14.13;;;;;;;10.81;73.55;101914.75;4953705;29;20078;-56
2021/05/20 00:52:36;;;;;;;20.40;14.52;;;;;;;10.79;73.19;101919.59;4955694;28;20127;-52
2021/05/20 00:55:05;;;;;;;18.60;14.30;;;;;;;10.75;73.15;101923.88;4955121;28;20478;-55
2021/05/20 00:57:35;;;;;;;17.67;13.70;;;;;;;10.73;73.50;101924.13;4954232;29;20047;-56
2021/05/20 01:00:07;;;;;;;19.80;14.13;;;;;;;10.74;73.44;101924.97;4954960;28;20047;-55
2021/05/20 01:02:40;;;;;;;18.55;14.13;;;;;;;10.71;73.35;101923.53;4970263;28;20070;-57
2021/05/20 01:05:19;;;;;;;19.00;13.85;;;;;;;10.68;73.48;101924.03;4953350;29;20055;-56
2021/05/20 01:07:48;;;;;;;19.63;14.80;;;;;;;10.69;73.45;101922.13;4955462;28;20044;-55
2021/05/20 01:10:15;;;;;;;17.05;13.32;;;;;;;10.67;73.48;101925.09;4954400;28;20454;-52
2021/05/20 01:12:43;;;;;;;18.88;14.50;;;;;;;10.68;73.64;101931.34;4954947;28;20048;-53
2021/05/20 01:15:22;;;;;;;19.92;15.13;;;;;;;10.68;73.54;101934.94;4954891;28;20039;-54
2021/05/20 01:17:53;;;;;;;17.05;13.77;;;;;;;10.69;73.44;101933.03;4954883;28;20051;-57
2021/05/20 01:20:25;;;;;;;17.95;14.13;;;;;;;10.70;73.32;101945.59;4954639;28;20054;-55
2021/05/20 01:23:05;;;;;;;21.35;14.50;;;;;;;10.70;73.44;101940.94;4954734;28;20402;-56
2021/05/20 01:25:33;;;;;;;19.77;14.75;;;;;;;10.68;73.40;101945.00;4955190;28;20103;-56
2021/05/20 01:28:04;;;;;;;19.42;14.70;;;;;;;10.64;73.74;101948.22;4954941;28;20067;-55
2021/05/20 01:30:34;;;;;;;20.58;15.50;;;;;;;10.64;73.38;101948.22;4955165;28;20058;-57
2021/05/20 01:33:02;;;;;;;18.42;15.13;;;;;;;10.60;73.73;101952.47;4953415;29;20082;-57
2021/05/20 01:35:30;;;;;;;19.42;15.38;;;;;;;10.60;73.47;101944.28;4954357;28;20051;-55
2021/05/20 01:38:30;;;;;;;21.73;16.15;;;;;;;10.60;73.15;101947.03;4953335;29;20459;-57
2021/05/20 01:41:02;;;;;;;20.23;15.20;;;;;;;10.59;73.20;101950.81;4954077;28;20047;-57
2021/05/20 01:43:31;;;;;;;20.45;14.68;;;;;;;10.58;73.32;101953.78;4954646;28;20047;-56
2021/05/20 01:46:00;;;;;;;18.50;15.23;;;;;;;10.56;73.40;101950.47;4954186;28;20047;-56
2021/05/20 01:48:30;;;;;;;21.02;16.35;;;;;;;10.55;73.65;101957.81;4954114;28;20067;-57
2021/05/20 01:51:18;;;;;;;18.95;14.98;;;;;;;10.52;73.76;101954.75;4954546;28;20410;-55
2021/05/20 01:53:49;;;;;;;18.40;14.07;;;;;;;10.50;73.12;101952.25;4954222;28;20051;-57
2021/05/20 01:56:19;;;;;;;19.55;15.18;;;;;;;10.46;73.36;101959.25;4954701;28;20043;-57
2021/05/20 01:58:48;;;;;;;18.83;14.75;;;;;;;10.44;73.40;101955.97;4952953;28;20058;-57
2021/05/20 02:01:18;;;;;;;19.00;15.30;;;;;;;10.44;73.17;101955.97;4969032;28;20061;-56
2021/05/20 02:03:47;;;;;;;19.13;15.32;;;;;;;10.40;73.34;101957.50;4968636;28;20055;-53
2021/05/20 02:06:17;;;;;;;19.90;15.52;;;;;;;10.39;73.44;101961.28;4954503;28;20490;-55
2021/05/20 02:08:49;;;;;;;17.90;14.40;;;;;;;10.40;73.55;101952.06;4952939;29;20533;-54
2021/05/20 02:11:20;;;;;;;19.55;15.70;;;;;;;10.42;73.65;101958.09;4954071;29;20110;-56
2021/05/20 02:13:52;;;;;;;21.15;14.55;;;;;;;10.43;73.35;101951.56;4954041;28;20047;-56
2021/05/20 02:16:25;;;;;;;21.80;15.68;;;;;;;10.42;73.31;101955.38;4954816;29;20047;-57
2021/05/20 02:18:53;;;;;;;21.92;15.63;;;;;;;10.39;73.19;101955.81;4953846;29;20102;-56
2021/05/20 02:21:27;;;;;;;19.70;15.77;;;;;;;10.36;73.38;101961.75;4952815;28;20062;-57
2021/05/20 02:23:55;;;;;;;20.02;15.75;;;;;;;10.36;73.53;101961.75;4953574;28;20047;-53
2021/05/20 02:26:23;;;;;;;19.58;15.32;;;;;;;10.38;73.24;101959.63;4953862;28;20442;-51
2021/05/20 02:28:50;;;;;;;17.88;14.90;;;;;;;10.37;73.27;101963.44;4953856;28;20055;-57
2021/05/20 02:31:18;;;;;;;20.88;15.73;;;;;;;10.34;73.35;101966.63;4953687;28;20094;-57
2021/05/20 02:33:46;;;;;;;19.10;15.75;;;;;;;10.33;73.55;101962.25;4954365;28;20481;-53
2021/05/20 02:36:13;;;;;;;24.10;16.08;;;;;;;10.32;73.49;101963.28;4953734;28;20055;-56
2021/05/20 02:38:41;;;;;;;21.33;15.93;;;;;;;10.32;73.25;101964.16;4953860;28;20450;-57
2021/05/20 02:41:08;;;;;;;20.85;16.60;;;;;;;10.32;73.49;101957.84;4953735;28;20048;-57
2021/05/20 02:43:36;;;;;;;20.70;16.27;;;;;;;10.33;73.34;101954.06;4940746;29;20047;-56
2021/05/20 02:46:04;;;;;;;23.30;17.95;;;;;;;10.35;73.18;101954.66;4953701;28;20541;-54
2021/05/20 02:48:31;;;;;;;22.52;17.35;;;;;;;10.36;73.16;101961.75;4953811;28;20537;-54
2021/05/20 02:51:00;;;;;;;27.70;18.75;;;;;;;10.35;72.99;101954.66;4954027;28;20046;-57
2021/05/20 02:53:28;;;;;;;25.40;19.48;;;;;;;10.34;73.28;101959.28;4950446;28;20050;-57
2021/05/20 02:55:59;;;;;;;28.52;20.60;;;;;;;10.35;73.32;101954.66;4952400;29;20502;-53
2021/05/20 02:58:27;;;;;;;28.50;21.10;;;;;;;10.37;73.42;101957.97;4953614;28;20054;-54
2021/05/20 03:00:57;;;;;;;30.85;22.38;;;;;;;10.35;73.40;101955.50;4953251;28;20102;-55
2021/05/20 03:03:25;;;;;;;30.58;22.60;;;;;;;10.30;73.48;101962.72;4953869;28;20046;-55
2021/05/20 03:05:58;;;;;;;30.10;22.52;;;;;;;10.25;74.05;101960.69;4953591;28;20106;-56
2021/05/20 03:08:26;;;;;;;32.20;23.77;;;;;;;10.20;74.28;101969.56;4953849;28;20039;-56
2021/05/20 03:10:58;;;;;;;31.15;23.48;;;;;;;10.17;74.45;101970.03;4952335;28;20051;-55
2021/05/20 03:13:25;;;;;;;31.23;23.20;;;;;;;10.11;74.70;101976.44;4953041;29;20055;-57
2021/05/20 03:15:55;;;;;;;32.78;24.48;;;;;;;10.08;75.18;101962.44;4968290;28;20470;-57
2021/05/20 03:18:25;;;;;;;31.73;22.85;;;;;;;10.07;75.11;101967.06;4968617;28;20043;-56
2021/05/20 03:20:55;;;;;;;32.30;24.20;;;;;;;10.08;75.82;101962.44;4968824;28;20450;-56
2021/05/20 03:23:27;;;;;;;30.90;23.52;;;;;;;10.11;75.71;101970.16;4968262;28;20073;-56
2021/05/20 03:25:58;;;;;;;31.45;23.50;;;;;;;10.13;75.51;101957.97;4953398;28;20418;-57
2021/05/20 03:28:31;;;;;;;33.50;25.45;;;;;;;10.16;75.25;101954.75;4967997;28;20426;-56
2021/05/20 03:31:02;;;;;;;31.92;24.00;;;;;;;10.21;75.54;101960.31;4951639;29;20043;-54
2021/05/20 03:33:34;;;;;;;33.35;24.63;;;;;;;10.24;75.47;101961.72;4952464;28;20452;-57
2021/05/20 03:36:10;;;;;;;32.75;24.63;;;;;;;10.23;75.24;101958.19;4971601;28;20422;-57
2021/05/20 03:38:48;;;;;;;34.90;25.83;;;;;;;10.23;75.45;101955.47;4955566;28;20150;-55
2021/05/20 03:41:16;;;;;;;32.70;25.00;;;;;;;10.25;75.66;101957.97;4956662;28;20510;-56
2021/05/20 03:43:44;;;;;;;34.22;24.83;;;;;;;10.22;75.18;101956.53;4956379;28;20043;-56
2021/05/20 03:46:28;;;;;;;32.00;24.00;;;;;;;10.20;75.29;101955.13;4956955;28;20047;-57
2021/05/20 03:48:56;;;;;;;32.83;24.35;;;;;;;10.17;75.49;101961.88;4971384;28;20044;-56
2021/05/20 03:51:24;;;;;;;32.15;24.13;;;;;;;10.16;75.48;101957.47;4956644;28;20051;-56
2021/05/20 03:53:52;;;;;;;33.35;24.70;;;;;;;10.14;75.69;101965.06;4955298;29;20035;-56
2021/05/20 03:56:20;;;;;;;31.70;23.92;;;;;;;10.13;76.10;101965.31;4956405;28;20043;-56
2021/05/20 03:58:47;;;;;;;31.88;22.85;;;;;;;10.15;76.02;101957.69;4956312;28;20043;-54
2021/05/20 04:01:15;;;;;;;29.08;21.77;;;;;;;10.16;75.67;101959.38;4956256;28;20490;-56
2021/05/20 04:03:43;;;;;;;27.17;20.08;;;;;;;10.12;75.39;101961.72;4956624;28;20047;-56
2021/05/20 04:06:10;;;;;;;26.33;19.45;;;;;;;10.11;75.62;101968.25;4955060;29;20050;-55
2021/05/20 04:08:38;;;;;;;26.35;19.17;;;;;;;10.09;75.41;101962.22;4956358;28;20054;-56
2021/05/20 04:11:08;;;;;;;24.42;18.75;;;;;;;10.05;75.14;101961.03;4956144;28;20427;-57
2021/05/20 04:13:38;;;;;;;25.35;19.17;;;;;;;10.01;75.50;101962.59;4955993;28;20043;-54
2021/05/20 04:16:07;;;;;;;24.77;18.92;;;;;;;10.01;75.95;101965.31;4956095;28;20039;-56
2021/05/20 04:18:35;;;;;;;26.38;20.02;;;;;;;10.03;75.99;101963.19;4956329;28;20099;-57
2021/05/20 04:21:03;;;;;;;25.45;19.00;;;;;;;10.08;75.84;101963.28;4954794;29;20050;-53
2021/05/20 04:23:31;;;;;;;25.58;19.27;;;;;;;10.12;75.54;101966.34;4956058;28;20042;-56
2021/05/20 04:26:02;;;;;;;25.38;19.13;;;;;;;10.13;75.61;101971.56;4970867;28;20055;-57
2021/05/20 04:28:30;;;;;;;25.08;19.17;;;;;;;10.13;75.92;101968.84;4955625;28;20067;-57
2021/05/20 04:31:00;;;;;;;27.58;19.20;;;;;;;10.13;75.69;101974.31;4954606;29;20395;-56
2021/05/20 04:33:28;;;;;;;25.33;18.70;;;;;;;10.13;75.80;101971.56;4949179;28;20054;-54
2021/05/20 04:35:57;;;;;;;26.98;19.10;;;;;;;10.12;75.85;101975.34;4955573;28;20122;-54
2021/05/20 04:38:30;;;;;;;24.92;19.08;;;;;;;10.17;76.30;101969.19;4954211;29;20043;-56
2021/05/20 04:41:00;;;;;;;36.22;25.58;;;;;;;10.17;76.27;101970.03;4954226;29;20047;-55
2021/05/20 04:43:33;;;;;;;34.22;25.42;;;;;;;10.07;75.98;101968.97;4938439;29;20059;-55
2021/05/20 04:46:17;;;;;;;34.67;25.13;;;;;;;10.03;76.60;101971.34;4962201;28;20054;-54
2021/05/20 04:49:11;;;;;;;33.13;25.35;;;;;;;10.05;76.54;101971.91;4949174;29;20048;-56
2021/05/20 04:51:51;;;;;;;27.48;20.80;;;;;;;10.05;76.91;101976.53;4953967;29;20051;-53
2021/05/20 04:54:30;;;;;;;25.67;19.35;;;;;;;10.10;76.58;101980.22;4957688;28;20052;-53
2021/05/20 04:57:06;;;;;;;27.27;20.33;;;;;;;10.10;76.33;101974.78;4960921;28;20044;-54
2021/05/20 04:59:33;;;;;;;27.77;19.73;;;;;;;10.13;76.35;101970.75;4955107;28;20038;-54
2021/05/20 05:02:01;;;;;;;25.85;18.70;;;;;;;10.13;75.97;101974.31;4955108;28;20117;-52
2021/05/20 05:04:29;;;;;;;24.80;18.75;;;;;;;10.11;75.66;101981.88;4955128;28;20047;-54
2021/05/20 05:06:56;;;;;;;27.15;18.67;;;;;;;10.10;76.20;101977.50;4955399;28;20058;-56
2021/05/20 05:09:24;;;;;;;24.42;17.52;;;;;;;10.11;76.24;101981.88;4954826;28;20035;-55
2021/05/20 05:11:52;;;;;;;29.67;18.90;;;;;;;10.16;76.67;101976.53;4954289;28;20039;-54
2021/05/20 05:14:19;;;;;;;24.27;16.40;;;;;;;10.22;76.44;101978.34;4954851;28;20498;-56
2021/05/20 05:16:47;;;;;;;26.75;19.20;;;;;;;10.28;76.23;101979.31;4954795;28;20150;-57
2021/05/20 05:19:17;;;;;;;24.67;18.38;;;;;;;10.31;76.07;101987.00;4954742;28;20039;-56
2021/05/20 05:21:45;;;;;;;26.83;17.63;;;;;;;10.33;75.83;101981.31;4954724;28;20102;-55
2021/05/20 05:24:13;;;;;;;25.30;16.23;;;;;;;10.24;75.63;101986.25;4954887;28;20102;-56
2021/05/20 05:26:41;;;;;;;22.50;16.35;;;;;;;10.20;75.92;101985.91;4269427;28;10022383;-56
2021/05/20 05:29:09;;;;;;;26.10;18.73;;;;;;;10.16;75.93;101989.34;4945650;29;20491;-55
2021/05/20 05:31:37;;;;;;;25.05;16.98;;;;;;;10.14;75.87;101997.72;4952587;28;20043;-54
2021/05/20 05:34:07;;;;;;;25.42;18.25;;;;;;;10.09;76.18;102010.41;4954348;28;20538;-55
2021/05/20 05:36:35;;;;;;;20.70;13.65;;;;;;;10.10;76.41;102001.16;4950434;28;20624;-56
2021/05/20 05:39:05;;;;;;;21.67;14.07;;;;;;;10.15;76.61;102001.28;4950666;28;20069;-57
2021/05/20 05:41:33;;;;;;;22.38;13.80;;;;;;;10.18;76.52;102003.56;4951630;28;20059;-56
2021/05/20 05:44:06;;;;;;;24.80;14.27;;;;;;;10.20;76.43;102004.16;4951070;28;20047;-57
2021/05/20 05:46:38;;;;;;;28.10;18.45;;;;;;;10.17;76.64;101991.84;4950703;28;20047;-57
2021/05/20 05:49:16;;;;;;;29.90;18.88;;;;;;;10.17;76.00;101999.16;4951933;28;20410;-56
2021/05/20 05:52:04;;;;;;;29.00;18.58;;;;;;;10.16;76.16;101992.88;4950317;29;20046;-54
2021/05/20 05:54:33;;;;;;;27.25;17.20;;;;;;;10.18;76.58;102004.38;4951911;28;20045;-55
2021/05/20 05:57:05;;;;;;;34.33;18.38;;;;;;;10.22;76.75;102000.13;4950530;28;20082;-56
2021/05/20 05:59:39;;;;;;;29.05;18.40;;;;;;;10.27;76.69;101996.69;4935701;29;20053;-54
2021/05/20 06:02:14;;;;;;;23.17;15.35;;;;;;;10.30;76.46;101998.97;4950324;29;20439;-55
2021/05/20 06:04:44;;;;;;;29.60;18.70;;;;;;;10.30;76.67;101998.97;4934813;29;20466;-56
2021/05/20 06:07:22;;;;;;;27.08;19.00;;;;;;;10.30;76.66;102006.31;4950459;29;20047;-55
2021/05/20 06:09:53;;;;;;;25.35;17.52;;;;;;;10.29;76.71;102016.34;4966350;28;20047;-55
2021/05/20 06:12:37;;;;;;;28.25;19.50;;;;;;;10.29;76.83;102010.09;4950822;29;20072;-55
2021/05/20 06:15:08;;;;;;;22.15;14.20;;;;;;;10.29;76.61;102020.97;4951572;28;20042;-57
2021/05/20 06:17:37;;;;;;;18.33;12.48;;;;;;;10.33;77.03;102022.19;4951484;28;20043;-56
2021/05/20 06:20:06;;;;;;;19.95;15.07;;;;;;;10.28;76.80;102019.31;4953280;28;20134;-55
2021/05/20 06:22:34;;;;;;;22.67;15.68;;;;;;;10.24;76.72;102014.31;4952544;28;20102;-55
2021/05/20 06:25:05;;;;;;;22.08;13.48;;;;;;;10.27;76.74;102023.06;4953640;28;20079;-54
2021/05/20 06:27:32;;;;;;;16.13;12.00;;;;;;;10.34;77.61;102021.09;4968526;28;20043;-57
2021/05/20 06:30:00;;;;;;;18.42;12.77;;;;;;;10.39;76.95;102013.03;4953827;28;20040;-57
2021/05/20 06:32:28;;;;;;;18.23;13.95;;;;;;;10.40;76.94;102023.72;4953952;28;20545;-55
2021/05/20 06:34:56;;;;;;;16.65;11.82;;;;;;;10.38;76.70;102020.38;4953610;28;20396;-56
2021/05/20 06:37:24;;;;;;;15.75;11.30;;;;;;;10.39;76.73;102022.06;4953602;28;20063;-57
2021/05/20 06:39:52;;;;;;;16.08;10.32;;;;;;;10.43;76.37;102012.31;4953333;28;20039;-56
2021/05/20 06:42:20;;;;;;;17.50;12.80;;;;;;;10.41;76.32;102022.66;4968536;28;20044;-56
2021/05/20 06:44:48;;;;;;;18.42;14.65;;;;;;;10.40;76.45;102025.63;4953853;28;20142;-54
2021/05/20 06:47:16;;;;;;;14.35;10.98;;;;;;;10.39;76.38;102015.75;4953632;28;20047;-56
2021/05/20 06:49:44;;;;;;;13.00;9.15;;;;;;;10.42;76.14;102032.47;4953723;28;20047;-58
2021/05/20 06:52:11;;;;;;;17.08;12.73;;;;;;;10.43;76.22;102027.84;4953625;28;20047;-56
2021/05/20 06:54:39;;;;;;;13.70;10.90;;;;;;;10.42;75.93;102031.66;4953537;28;20083;-58
2021/05/20 06:57:19;;;;;;;14.77;11.10;;;;;;;10.42;75.90;102042.56;4953287;28;20046;-60
2021/05/20 06:59:57;;;;;;;16.40;12.75;;;;;;;10.38;76.04;102041.34;4952499;29;20043;-58
2021/05/20 07:02:30;;;;;;;17.00;11.98;;;;;;;10.34;76.24;102051.06;4949579;28;20043;-57
2021/05/20 07:04:59;;;;;;;16.40;11.13;;;;;;;10.46;77.42;102054.63;4949069;29;20501;-57
2021/05/20 07:07:31;;;;;;;16.52;10.60;;;;;;;10.42;76.99;102048.00;4946381;29;20047;-58
2021/05/20 07:10:02;;;;;;;17.90;14.43;;;;;;;10.42;76.67;102057.00;4952819;28;20114;-58
2021/05/20 07:12:35;;;;;;;16.90;12.20;;;;;;;10.42;76.99;102053.44;4955706;29;20066;-57
2021/05/20 07:15:09;;;;;;;21.85;14.85;;;;;;;10.42;77.30;102053.44;4956286;28;20056;-57
2021/05/20 07:17:43;;;;;;;17.73;11.90;;;;;;;10.42;77.10;102064.34;4952400;29;20035;-58
2021/05/20 07:20:21;;;;;;;17.63;11.00;;;;;;;10.55;78.60;102055.09;4955506;29;20501;-58
2021/05/20 07:22:53;;;;;;;18.73;13.13;;;;;;;10.55;77.50;102047.75;4955258;28;20039;-57
2021/05/20 07:25:27;;;;;;;17.48;13.30;;;;;;;10.54;77.26;102042.56;4955629;28;20136;-57
2021/05/20 07:28:05;;;;;;;17.70;12.52;;;;;;;10.61;77.63;102035.09;4955060;29;20057;-57
2021/05/20 07:30:53;;;;;;;18.13;12.48;;;;;;;10.63;77.73;102033.78;4956052;29;20235;-57
2021/05/20 07:33:34;;;;;;;16.33;10.05;;;;;;;10.70;78.25;102036.34;4952568;29;20074;-56
2021/05/20 07:36:03;;;;;;;19.25;11.40;;;;;;;10.84;78.71;102029.56;4956087;28;20035;-57
2021/05/20 07:38:32;;;;;;;21.95;12.75;;;;;;;10.84;77.86;102029.56;4956593;28;20114;-57
2021/05/20 07:41:00;;;;;;;18.98;13.23;;;;;;;10.82;77.84;102031.75;4955717;28;20031;-56
2021/05/20 07:43:28;;;;;;;21.10;15.95;;;;;;;10.77;76.97;102028.88;4956627;28;20047;-58
2021/05/20 07:45:56;;;;;;;21.65;15.98;;;;;;;10.77;76.53;102031.59;4956675;28;20039;-59
2021/05/20 07:48:24;;;;;;;19.58;14.85;;;;;;;10.73;76.85;102032.34;4956254;28;20039;-58
2021/05/20 07:50:52;;;;;;;17.05;12.38;;;;;;;10.75;76.89;102035.66;4955816;28;20050;-58
2021/05/20 07:53:20;;;;;;;18.02;13.40;;;;;;;10.79;77.11;102031.38;4956146;28;20039;-56
2021/05/20 07:55:47;;;;;;;24.25;14.05;;;;;;;10.94;78.13;102044.50;4956014;28;20046;-57
2021/05/20 07:58:15;;;;;;;19.60;13.73;;;;;;;10.98;77.36;102038.34;4956279;28;20047;-54
2021/05/20 08:00:43;;;;;;;19.77;13.57;;;;;;;10.96;76.95;102032.28;4955911;28;20039;-56
2021/05/20 08:03:40;;;;;;;21.17;15.75;;;;;;;10.95;76.91;102029.81;4954045;28;20059;-56
2021/05/20 08:06:26;;;;;;;19.02;13.13;;;;;;;11.09;77.39;102032.03;4955600;28;20050;-57
2021/05/20 08:11:47;;;;;;;13.52;7.72;;;;;;;11.30;80.00;102029.69;4970668;28;20419;-56
2021/05/20 08:14:24;;;;;;;18.55;12.77;;;;;;;11.34;77.35;102022.69;4954725;28;20050;-55
2021/05/20 08:17:07;;;;;;;16.85;10.30;;;;;;;11.50;78.53;102027.38;4970615;28;20122;-55
2021/05/20 08:19:51;;;;;;;;;;;;;;;11.48;79.26;102026.78;4954024;28;20055;-55
2021/05/20 08:22:24;;;;;;;17.90;13.40;;;;;;;11.42;77.67;102018.72;4970192;28;20009;-55
2021/05/20 08:25:12;;;;;;;21.55;12.85;;;;;;;11.32;76.12;102026.72;4955697;28;20043;-58
2021/05/20 08:27:56;;;;;;;25.80;15.60;;;;;;;11.30;76.59;102011.44;4954353;28;20461;-56
2021/05/20 08:30:44;;;;;;;9.73;4.25;;;;;;;11.61;80.03;102019.34;4957294;28;20509;-56
2021/05/20 08:33:32;;;;;;;17.42;10.20;;;;;;;11.64;77.83;102013.41;4947609;29;20047;-56
2021/05/20 08:36:19;;;;;;;18.80;14.23;;;;;;;11.68;76.08;102015.38;4955463;28;20509;-53
2021/05/20 08:39:07;;;;;;;25.30;20.20;;;;;;;11.53;74.96;102006.94;4966566;28;20126;-58
2021/05/20 08:41:53;;;;;;;17.42;8.23;;;;;;;11.59;77.32;102008.66;4969959;28;20142;-58
2021/05/20 08:44:32;;;;;;;22.80;13.82;;;;;;;11.90;75.62;102004.59;4949826;28;20130;-55
2021/05/20 08:47:12;;;;;;;26.25;16.48;;;;;;;11.99;75.45;101998.75;4954244;28;20044;-53
2021/05/20 08:50:00;;;;;;;21.73;12.65;;;;;;;12.16;74.57;101994.09;4953715;29;20126;-57
2021/05/20 08:52:45;;;;;;;25.90;15.73;;;;;;;12.02;74.25;101990.03;4943949;29;20059;-61
2021/05/20 08:55:33;;;;;;;32.25;24.75;;;;;;;12.02;73.90;101987.31;4980920;28;20047;-54
2021/05/20 08:58:24;;;;;;;20.35;14.40;;;;;;;12.16;74.07;101983.16;4958024;28;20122;-53
2021/05/20 09:01:32;;;;;;;22.67;13.43;;;;;;;12.40;73.22;101985.69;4960359;28;20054;-55
2021/05/20 09:04:24;;;;;;;23.90;12.40;;;;;;;12.52;72.06;101989.97;4953222;29;20054;-53
2021/05/20 09:07:06;;;;;;;27.95;18.42;;;;;;;12.76;70.86;101989.72;4970195;28;20051;-56
2021/05/20 09:09:55;;;;;;;34.22;22.67;;;;;;;12.47;70.54;101989.06;4957143;28;20129;-56
2021/05/20 09:12:32;;;;;;;45.47;33.33;;;;;;;12.30;71.57;101992.66;4939263;29;20142;-57
2021/05/20 09:15:28;;;;;;;26.13;18.45;;;;;;;12.35;70.99;101989.19;4956663;28;20122;-54
2021/05/20 09:18:29;;;;;;;23.55;16.48;;;;;;;12.36;70.91;101983.47;4953243;28;20051;-55
2021/05/20 09:20:58;;;;;;;32.03;21.90;;;;;;;12.54;71.05;101987.00;4954718;28;20043;-55
2021/05/20 09:23:29;;;;;;;41.95;28.23;;;;;;;12.42;70.57;101989.00;4954441;28;20094;-52
2021/05/20 09:26:11;;;;;;;25.15;17.85;;;;;;;12.56;70.48;101988.38;4954517;28;20090;-54
2021/05/20 09:28:42;;;;;;;35.88;28.60;;;;;;;12.40;70.38;101991.16;4954516;28;20062;-54
2021/05/20 09:31:11;;;;;;;25.77;17.85;;;;;;;12.69;69.62;101995.38;4954419;28;20055;-53
2021/05/20 09:33:38;;;;;;;26.13;15.57;;;;;;;12.85;69.57;101987.41;4953515;28;20049;-56
2021/05/20 09:36:06;;;;;;;28.13;17.27;;;;;;;12.98;68.55;101987.00;4953442;29;20106;-56
2021/05/20 09:38:37;;;;;;;34.33;25.77;;;;;;;12.93;68.54;101981.47;4941229;29;20494;-56
2021/05/20 09:41:06;;;;;;;38.83;27.38;;;;;;;13.05;67.82;101987.63;4954442;28;20102;-54
2021/05/20 09:43:35;;;;;;;49.75;32.25;;;;;;;12.73;67.98;101985.59;4954065;28;20110;-58
2021/05/20 09:46:15;;;;;;;46.28;33.47;;;;;;;12.58;69.14;101974.47;4953097;28;20047;-55
2021/05/20 09:48:46;;;;;;;40.47;30.15;;;;;;;12.33;69.33;101977.66;4953863;28;20039;-54
2021/05/20 09:51:21;;;;;;;45.22;30.55;;;;;;;12.18;69.54;101970.06;4954001;28;20043;-54
2021/05/20 09:53:53;;;;;;;44.80;34.13;;;;;;;12.07;70.53;101966.34;4968991;28;20047;-54
2021/05/20 09:56:34;;;;;;;41.20;31.95;;;;;;;12.06;71.63;101958.41;4968948;28;20055;-56
2021/05/20 09:59:02;;;;;;;42.38;30.85;;;;;;;12.13;71.05;101957.16;4941532;29;20047;-59
2021/05/20 10:01:34;;;;;;;49.35;35.88;;;;;;;12.23;71.43;101953.75;4952154;29;20521;-52
2021/05/20 10:04:02;;;;;;;34.97;25.42;;;;;;;12.32;70.55;101951.44;4953284;28;20402;-56
2021/05/20 10:06:35;;;;;;;35.85;24.15;;;;;;;12.39;70.59;101956.69;4952725;28;20047;-53
2021/05/20 10:09:09;;;;;;;31.95;21.98;;;;;;;12.48;70.70;101949.72;4941864;28;20133;-56
2021/05/20 10:11:45;;;;;;;50.40;29.58;;;;;;;12.44;69.88;101951.31;4952592;29;20055;-53
2021/05/20 10:14:14;;;;;;;46.78;34.63;;;;;;;12.40;69.86;101941.97;4952246;29;20047;-56
2021/05/20 10:16:45;;;;;;;61.15;38.42;;;;;;;12.45;69.44;101939.28;4932953;29;20047;-56
2021/05/20 10:19:33;;;;;;;58.72;37.55;;;;;;;12.64;70.06;101932.44;4952303;29;20078;-55
2021/05/20 10:22:06;;;;;;;52.00;36.47;;;;;;;12.68;71.53;101922.66;4968921;28;20051;-54
2021/05/20 10:24:52;;;;;;;67.90;41.35;;;;;;;12.91;72.41;101926.19;4952493;29;20051;-54
2021/05/20 10:27:31;;;;;;;48.67;34.17;;;;;;;12.97;69.18;101914.22;4938000;29;20043;-54
2021/05/20 10:30:08;;;;;;;43.30;31.17;;;;;;;12.98;69.71;101911.22;4267137;28;9999959;-56
2021/05/20 10:32:48;;;;;;;41.75;30.83;;;;;;;12.99;69.72;101909.31;4935644;29;20541;-54
2021/05/20 10:35:43;;;;;;;44.28;31.33;;;;;;;12.92;68.52;101903.22;4950390;29;20137;-54
2021/05/20 10:38:35;;;;;;;47.35;31.15;;;;;;;12.90;68.12;101897.19;4950117;28;20057;-52
2021/05/20 10:41:17;;;;;;;35.85;28.75;;;;;;;13.02;68.92;101895.13;4949903;29;20044;-56
2021/05/20 10:44:06;;;;;;;32.85;25.60;;;;;;;13.09;66.16;101884.78;4939576;29;20557;-56
2021/05/20 10:47:05;;;;;;;32.55;26.38;;;;;;;13.11;66.32;101877.16;4952786;29;20051;-53
2021/05/20 10:49:51;;;;;;;33.58;26.13;;;;;;;13.18;66.80;101872.31;4953069;29;20094;-56
2021/05/20 10:52:46;;;;;;;36.53;24.65;;;;;;;13.18;66.08;101860.50;4952611;29;20259;-54
2021/05/20 10:55:15;;;;;;;42.22;26.75;;;;;;;13.26;67.33;101867.44;4951740;28;20040;-52
2021/05/20 10:57:49;;;;;;;28.70;22.50;;;;;;;13.35;66.67;101855.78;4952742;28;20525;-55
2021/05/20 11:00:39;;;;;;;28.17;21.48;;;;;;;13.36;66.58;101857.41;4952218;29;20050;-55
2021/05/20 11:03:09;;;;;;;29.33;20.83;;;;;;;13.36;65.56;101856.59;4952349;29;20083;-54
2021/05/20 11:05:42;;;;;;;31.38;22.80;;;;;;;13.55;66.47;101849.63;4951593;29;20046;-56
2021/05/20 11:08:31;;;;;;;35.70;22.52;;;;;;;13.81;68.15;101841.59;4952531;29;20106;-53
2021/05/20 11:11:01;;;;;;;28.05;20.58;;;;;;;13.83;65.26;101836.69;4951795;29;20050;-55
2021/05/20 11:13:39;;;;;;;25.20;19.77;;;;;;;13.77;64.52;101829.50;4952078;29;20226;-54
2021/05/20 11:16:13;;;;;;;42.47;23.58;;;;;;;13.84;67.75;101830.91;4952086;29;20122;-53
2021/05/20 11:18:42;;;;;;;25.95;19.58;;;;;;;13.85;65.07;101820.78;4954422;29;20043;-55
2021/05/20 11:21:10;;;;;;;31.45;21.27;;;;;;;13.90;66.94;101812.56;4938713;29;20035;-55
2021/05/20 11:23:39;;;;;;;38.30;21.70;;;;;;;14.02;67.54;101815.97;4946638;29;20064;-57
2021/05/20 11:26:13;;;;;;;20.30;13.50;;;;;;;13.98;62.96;101805.78;4949752;29;20500;-56
2021/05/20 11:28:54;;;;;;;20.55;15.32;;;;;;;13.99;64.25;101808.25;4970900;28;20134;-64
2021/05/20 11:31:26;;;;;;;22.60;15.95;;;;;;;13.94;62.06;101808.22;4955438;29;20052;-53
2021/05/20 11:34:24;;;;;;;21.05;15.57;;;;;;;13.88;61.55;101794.75;4969704;28;20047;-54
2021/05/20 11:36:53;;;;;;;20.95;15.02;;;;;;;13.84;61.97;101805.44;4948025;29;20055;-63
2021/05/20 11:39:30;;;;;;;15.32;11.27;;;;;;;13.81;61.68;101797.75;4962103;28;20044;-51
2021/05/20 11:42:09;;;;;;;16.05;10.20;;;;;;;13.88;64.09;101781.91;4951444;28;20651;-50